This demonstration page uses our WeatherBlox Daily Observations layout. Learn more.

Left ArrowRight Arrow

38.83388, -104.82136

Hourly Observations for November 17, 2022

Temp ( °F °C ) Dew Point ( °F °C ) Humidity (%) Winds ( mph kmh ) Pressure ( in mb ) Visibility ( mi km ) Precip ( " mm )
12:55 am 00:55 Mostly Cloudy 22 -5.8 7 -13.9 53 53 N 3 6 N/A 10 16 0.00 0.00
1:55 am 01:55 Clear 23 -5.2 7 -14 50 50 NNW 5 7 N/A 10 16 0.00 0.00
2:55 am 02:55 Clear 24 -4.5 6 -14.4 46 46 NNE 5 7 N/A 10 16 0.00 0.00
3:55 am 03:55 Clear 24 -4.2 6 -14.4 45 45 Calm N/A 10 16 0.00 0.00
4:55 am 04:55 Clear 26 -3.1 4 -15.4 38 38 W 5 7 N/A 10 16 0.00 0.00
5:55 am 05:55 Mostly Cloudy 27 -2.7 5 -14.8 39 39 WNW 8 13 N/A 10 16 0.00 0.00
6:55 am 06:55 Sunny 27 -2.7 5 -14.8 39 39 Calm N/A 10 16 0.00 0.00
7:55 am 07:55 Sunny 32 0 5 -15.1 31 31 NE 3 6 N/A 10 16 0.00 0.00
8:25 am 08:25 Sunny 32 0 5 -15 31 31 N 16 26 N/A 10 16 0.00 0.00
8:55 am 08:55 Sunny 27 -2.6 7 -13.8 42 42 N 18 30 N/A 10 16 0.00 0.00
9:55 am 09:55 Sunny 27 -2.9 12 -10.9 54 54 N 6 9 N/A 10 16 0.00 0.00
10:55 am 10:55 Mostly Sunny 26 -3.3 14 -9.8 61 61 N 12 19 N/A 10 16 0.00 0.00
11:55 am 11:55 Mostly Cloudy 28 -2.3 14 -10.1 55 55 N 9 15 N/A 10 16 0.00 0.00
12:56 pm 12:56 Cloudy with Light Wintry Mix 28 -2 14 -10 54 54 NE 3 6 N/A 10 16 0.00 0.00
1:07 pm 13:07 Cloudy 27 -3 14 -10 58 58 NNE 5 7 N/A 10 16 0.00 0.00
1:31 pm 13:31 Cloudy with Light Snow 25 -4 14 -10 63 63 E 3 6 N/A 10 16 0.00 0.00
1:42 pm 13:42 Cloudy 25 -4 14 -10 63 63 E 3 6 N/A 9 14 0.00 0.00
1:55 pm 13:55 Cloudy 27 -3 14 -10.1 58 58 ESE 7 11 N/A 10 16 0.01 0.13
1:58 pm 13:58 Cloudy with Light Snow 27 -3 14 -10 58 58 SSE 5 7 N/A 10 16 0.00 0.00
2:24 pm 14:24 Cloudy 27 -3 12 -11 54 54 SE 8 13 N/A 9 14 0.00 0.00
2:29 pm 14:29 Cloudy with Light Snow 25 -4 12 -11 58 58 SE 7 11 N/A 9 14 0.00 0.00
2:55 pm 14:55 Cloudy with Light Snow 24 -4.2 13 -10.4 62 62 ESE 5 7 N/A 9 14 0.01 0.13
3:55 pm 15:55 Cloudy with Light Snow 21 -6 13 -10.4 71 71 Calm N/A 9 14 0.01 0.13
4:55 pm 16:55 Cloudy with Light Snow 20 -6.9 14 -9.9 79 79 SE 5 7 N/A 9 14 0.01 0.13
5:15 pm 17:15 Cloudy with Light Snow 19 -7 14 -10 79 79 ESE 5 7 N/A 7 11 0.00 0.00
5:55 pm 17:55 Cloudy with Light Snow 19 -7.1 15 -9.5 83 83 SE 5 7 N/A 9 14 0.01 0.13
6:15 pm 18:15 Cloudy with Light Snow 18 -8 14 -10 85 85 SE 8 13 N/A 6 10 0.00 0.00
6:55 pm 18:55 Cloudy with Light Snow 17 -8.1 16 -9.1 92 92 SE 10 17 N/A 6 10 0.01 0.13
7:15 pm 19:15 Cloudy with Light Snow 18 -8 16 -9 92 92 SE 12 19 N/A 3 5 0.00 0.00
7:20 pm 19:20 Cloudy with Light Snow 18 -8 16 -9 92 92 SSE 13 20 N/A 3 4 0.00 0.00
7:40 pm 19:40 Cloudy with Light Snow 18 -8 16 -9 92 92 SE 12 19 N/A 2 2 0.00 0.00
7:55 pm 19:55 Cloudy with Light Snow 17 -8.4 16 -8.7 98 98 SE 10 17 N/A 1 2 0.01 0.13
8:45 pm 20:45 Cloudy with Light Snow 16 -9 14 -10 92 92 SSE 13 20 N/A 2 3 0.00 0.00
8:55 pm 20:55 Cloudy with Light Snow 15 -9.3 15 -9.7 97 97 SSE 13 20 N/A 2 3 0.01 0.13
9:10 pm 21:10 Partly Cloudy with Isolated Snow Showers 16 -9 14 -10 92 92 SSE 12 19 N/A 1 2 0.00 0.00
9:15 pm 21:15 Partly Cloudy with Isolated Snow Showers 16 -9 14 -10 92 92 SE 13 20 N/A 1 1 0.00 0.00
9:45 pm 21:45 Partly Cloudy with Isolated Snow Showers 16 -9 14 -10 92 92 SSE 12 19 N/A 1 2 0.00 0.00
9:55 pm 21:55 Cloudy with Light Snow 15 -9.7 14 -10.2 96 96 SSE 13 20 N/A 2 3 0.01 0.13
10:35 pm 22:35 Cloudy with Light Snow 14 -10 12 -11 92 92 SSE 9 15 N/A 2 4 0.00 0.00
10:55 pm 22:55 Cloudy with Light Snow 14 -9.9 13 -10.6 95 95 SSE 8 13 N/A 3 5 0.01 0.13
11:05 pm 23:05 Cloudy with Light Snow 14 -10 12 -11 92 92 SSE 10 17 N/A 3 4 0.00 0.00
11:15 pm 23:15 Cloudy with Light Snow 14 -10 12 -11 92 92 SSE 9 15 N/A 2 4 0.00 0.00
11:30 pm 23:30 Cloudy with Blowing Snow 14 -10 12 -11 92 92 SSE 14 22 N/A 3 4 0.00 0.00
11:42 pm 23:42 Cloudy with Light Snow 14 -10 12 -11 92 92 SSE 9 15 N/A 3 4 0.00 0.00
11:55 pm 23:55 Cloudy with Light Snow 13 -10.3 12 -11.1 94 94 SSE 12 19 N/A 2 3 0.01 0.13

Powered by AerisWeather